Time;durP1;ratioP1;P1;durP2;ratioP2;P2;SDS_P1;SDS_P2;PMS_P1;PMS_P2;Temp;Humidity;BMP_temperature;BMP_pressure;BME280_temperature;BME280_humidity;BME280_pressure;Samples;Min_cycle;Max_cycle;Signal;HPM_P1;HPM_P2
2022/07/01 00:00:57;;;;;;;6.70;4.82;;;;;;;15.07;92.92;101261.44;5048481;28;20119;-85
2022/07/01 00:03:23;;;;;;;6.50;4.72;;;;;;;15.06;92.89;101262.41;5065933;28;20055;-87
2022/07/01 00:05:48;;;;;;;5.35;4.47;;;;;;;15.07;93.04;101266.66;5053792;28;20409;-87
2022/07/01 00:08:16;;;;;;;6.35;4.03;;;;;;;15.08;92.94;101275.31;5044887;28;20078;-85
2022/07/01 00:10:42;;;;;;;5.15;4.22;;;;;;;15.08;92.32;101270.09;5054522;28;20020;-84
2022/07/01 00:13:07;;;;;;;6.03;4.07;;;;;;;15.00;92.17;101260.50;5067431;28;20028;-84
2022/07/01 00:15:33;;;;;;;7.30;3.55;;;;;;;14.96;92.53;101270.50;5072500;28;20013;-85
2022/07/01 00:17:58;;;;;;;9.15;4.13;;;;;;;14.89;92.57;101266.94;5077202;28;20064;-86
2022/07/01 00:20:24;;;;;;;6.90;4.00;;;;;;;14.91;91.52;101259.75;5067649;28;20068;-88
2022/07/01 00:22:50;;;;;;;7.53;4.32;;;;;;;14.81;92.14;101243.50;5075590;28;20063;-84
2022/07/01 00:25:15;;;;;;;10.05;4.30;;;;;;;14.76;92.19;101246.63;5048316;28;20035;-83
2022/07/01 00:27:41;;;;;;;7.10;4.10;;;;;;;14.73;92.46;101246.97;5058762;28;20267;-84
2022/07/01 00:30:08;;;;;;;10.10;4.50;;;;;;;14.75;92.35;101259.88;5051055;28;20552;-84
2022/07/01 00:32:33;;;;;;;8.68;5.03;;;;;;;14.69;93.26;101263.13;5050527;28;20040;-83
2022/07/01 00:34:59;;;;;;;7.20;4.05;;;;;;;14.69;93.75;101247.47;5052033;28;20047;-83
2022/07/01 00:37:25;;;;;;;8.80;4.32;;;;;;;14.72;93.32;101262.81;5040748;28;20029;-85
2022/07/01 00:39:50;;;;;;;7.40;3.90;;;;;;;14.72;93.09;101260.19;5042634;28;20033;-82
2022/07/01 00:42:16;;;;;;;7.50;4.40;;;;;;;14.67;93.07;101249.44;5054724;28;20077;-83
2022/07/01 00:44:41;;;;;;;7.47;4.00;;;;;;;14.63;93.26;101256.00;5044469;28;20040;-84
2022/07/01 00:47:12;;;;;;;7.03;4.43;;;;;;;14.60;93.69;101268.41;5059101;28;20027;-84
2022/07/01 00:49:38;;;;;;;9.15;4.82;;;;;;;14.57;93.96;101267.94;5043888;28;20464;-81
2022/07/01 00:52:07;;;;;;;5.88;3.63;;;;;;;14.52;94.27;101278.88;5044420;28;20065;-86
2022/07/01 00:54:35;;;;;;;8.73;4.80;;;;;;;14.52;94.19;101281.47;5064037;28;20033;-82
2022/07/01 00:57:06;;;;;;;8.68;4.53;;;;;;;14.47;93.98;101282.97;5061259;28;20475;-83
2022/07/01 00:59:34;;;;;;;14.85;6.35;;;;;;;14.44;93.63;101285.91;5050642;28;20147;-83
2022/07/01 01:01:59;;;;;;;12.88;6.43;;;;;;;14.39;94.08;101296.84;5050153;28;20048;-83
2022/07/01 01:04:25;;;;;;;6.53;4.75;;;;;;;14.37;94.84;101298.81;5045121;28;20043;-84
2022/07/01 01:06:51;;;;;;;10.50;4.45;;;;;;;14.39;94.79;101307.28;5060787;28;20481;-84
2022/07/01 01:09:16;;;;;;;13.57;4.38;;;;;;;14.36;94.99;101302.41;5053840;28;20031;-85
2022/07/01 01:11:42;;;;;;;13.40;5.13;;;;;;;14.35;94.82;101298.16;5047448;28;20082;-84
2022/07/01 01:14:07;;;;;;;11.63;4.70;;;;;;;14.34;94.99;101299.16;5061460;28;20524;-86
2022/07/01 01:16:35;;;;;;;8.68;4.75;;;;;;;14.37;94.92;101298.81;5065096;28;20420;-85
2022/07/01 01:19:04;;;;;;;8.80;4.63;;;;;;;14.38;94.89;101306.47;5058112;28;20028;-85
2022/07/01 01:21:30;;;;;;;11.70;5.90;;;;;;;14.35;94.84;101319.03;5052949;28;20032;-84
2022/07/01 01:23:56;;;;;;;14.27;6.10;;;;;;;14.38;94.94;101316.09;5049663;28;20420;-83
2022/07/01 01:26:24;;;;;;;12.57;6.25;;;;;;;14.32;94.68;101307.16;5043813;28;20479;-84
2022/07/01 01:28:50;;;;;;;20.95;7.47;;;;;;;14.32;94.38;101316.78;5062786;28;20537;-84
2022/07/01 01:31:16;;;;;;;14.85;6.50;;;;;;;14.28;94.63;101320.69;5049965;28;20055;-84
2022/07/01 01:33:41;;;;;;;11.73;6.13;;;;;;;14.30;94.66;101329.19;5062953;28;20469;-84
2022/07/01 01:36:07;;;;;;;12.35;5.70;;;;;;;14.34;94.76;101333.06;5050787;28;20064;-84
2022/07/01 01:38:34;;;;;;;19.08;8.40;;;;;;;14.25;93.49;101326.25;5048127;28;20028;-84
2022/07/01 01:41:03;;;;;;;14.65;8.13;;;;;;;14.26;93.39;101325.25;5044648;28;20039;-83
2022/07/01 01:43:29;;;;;;;15.88;7.47;;;;;;;14.27;93.99;101332.09;5047310;28;20028;-84
2022/07/01 01:45:54;;;;;;;15.50;8.63;;;;;;;14.31;93.99;101326.38;5044607;28;20039;-84
2022/07/01 01:48:20;;;;;;;14.32;7.13;;;;;;;14.25;94.88;101331.47;5051862;28;20035;-83
2022/07/01 01:50:45;;;;;;;10.98;6.20;;;;;;;14.21;94.81;101323.97;5055191;28;20481;-83
2022/07/01 01:53:10;;;;;;;17.58;8.23;;;;;;;14.22;94.78;101322.16;5068075;28;20093;-88
2022/07/01 01:55:36;;;;;;;13.20;7.20;;;;;;;14.19;95.53;101322.50;5052461;28;20043;-84
2022/07/01 01:58:01;;;;;;;11.32;6.45;;;;;;;14.21;95.35;101316.13;5052564;28;20133;-84
2022/07/01 02:00:28;;;;;;;17.33;7.45;;;;;;;14.26;95.16;101322.63;5061325;28;20032;-84
2022/07/01 02:02:54;;;;;;;13.98;8.55;;;;;;;14.32;94.44;101335.03;5064498;28;20037;-84
2022/07/01 02:05:19;;;;;;;13.50;7.93;;;;;;;14.27;94.09;101338.13;5050238;28;20526;-84
2022/07/01 02:07:45;;;;;;;17.00;8.52;;;;;;;14.25;94.09;101344.50;5059362;28;20405;-84
2022/07/01 02:10:10;;;;;;;16.35;9.10;;;;;;;14.28;94.07;101351.97;5061458;28;20028;-84
2022/07/01 02:12:36;;;;;;;12.82;7.68;;;;;;;14.23;94.21;101352.50;5040222;28;20039;-83
2022/07/01 02:15:01;;;;;;;12.73;7.68;;;;;;;14.26;94.71;101351.34;5053142;28;20028;-80
2022/07/01 02:17:27;;;;;;;14.63;7.82;;;;;;;14.24;94.75;101348.91;5055048;28;20692;-86
2022/07/01 02:19:53;;;;;;;21.33;10.02;;;;;;;14.15;95.23;101348.09;5043451;28;20481;-84
2022/07/01 02:22:18;;;;;;;16.83;9.32;;;;;;;14.14;95.19;101333.44;5058897;28;20043;-83
2022/07/01 02:24:44;;;;;;;13.27;7.40;;;;;;;14.16;95.59;101335.88;5041769;28;20036;-82
2022/07/01 02:27:10;;;;;;;15.88;9.15;;;;;;;14.18;95.27;101332.13;5047246;28;20035;-86
2022/07/01 02:29:35;;;;;;;18.55;8.07;;;;;;;14.19;95.17;101346.78;5057838;28;20451;-87
2022/07/01 02:32:00;;;;;;;13.68;6.70;;;;;;;14.11;95.81;101362.47;5048892;28;20031;-84
2022/07/01 02:34:26;;;;;;;11.60;7.78;;;;;;;14.14;96.00;101361.31;5058560;28;20496;-83
2022/07/01 02:36:55;;;;;;;16.45;7.95;;;;;;;14.16;95.85;101361.94;5063965;28;20040;-85
2022/07/01 02:39:21;;;;;;;13.82;7.80;;;;;;;14.13;95.80;101350.06;5045974;28;20029;-84
2022/07/01 02:44:31;;;;;;;12.23;6.38;;;;;;;14.17;95.67;101343.53;5055583;28;20523;-83
2022/07/01 02:46:57;;;;;;;13.18;6.80;;;;;;;14.16;95.85;101351.53;5050671;28;20047;-83
2022/07/01 02:49:22;;;;;;;10.68;6.57;;;;;;;14.16;96.04;101360.16;5047902;28;20069;-87
2022/07/01 02:51:47;;;;;;;11.65;6.15;;;;;;;14.18;95.99;101368.66;5059538;28;21715;-83
2022/07/01 02:54:13;;;;;;;17.30;7.05;;;;;;;14.20;96.24;101368.47;5056924;28;20050;-83
2022/07/01 02:56:38;;;;;;;14.93;7.45;;;;;;;14.17;95.40;101374.84;5053462;28;20550;-85
2022/07/01 02:59:04;;;;;;;13.68;7.57;;;;;;;14.14;95.22;101390.00;5060696;28;20071;-85
2022/07/01 03:01:29;;;;;;;13.27;6.45;;;;;;;14.20;95.37;101402.38;5059121;28;20058;-88
2022/07/01 03:03:55;;;;;;;17.00;6.00;;;;;;;14.19;95.36;101403.34;5047268;28;20473;-85
2022/07/01 03:06:20;;;;;;;14.13;5.80;;;;;;;14.11;95.07;101393.75;5067852;28;20036;-83
2022/07/01 03:08:46;;;;;;;9.55;5.72;;;;;;;14.09;95.04;101400.09;5047890;28;20078;-84
2022/07/01 03:11:11;;;;;;;10.48;5.97;;;;;;;14.07;95.30;101399.44;5055881;28;20684;-84
2022/07/01 03:13:37;;;;;;;8.30;4.82;;;;;;;14.03;95.91;101396.34;5065860;28;20040;-84
2022/07/01 03:16:03;;;;;;;11.93;6.20;;;;;;;14.01;96.25;101393.09;5044146;28;20467;-84
2022/07/01 03:18:29;;;;;;;6.55;4.63;;;;;;;14.02;96.18;101400.75;5038799;28;20033;-85
2022/07/01 03:20:54;;;;;;;13.20;5.75;;;;;;;14.00;96.11;101407.13;5052694;28;20588;-84
2022/07/01 03:23:19;;;;;;;11.00;6.43;;;;;;;14.01;95.58;101406.13;5050349;28;20037;-85
2022/07/01 03:25:45;;;;;;;14.38;5.47;;;;;;;14.00;95.65;101417.56;5044856;28;20119;-83
2022/07/01 03:28:10;;;;;;;13.93;3.80;;;;;;;14.01;95.77;101417.41;5033667;28;20036;-84
2022/07/01 03:30:36;;;;;;;7.93;4.72;;;;;;;14.04;95.68;101418.84;5046218;28;20021;-83
2022/07/01 03:33:01;;;;;;;8.55;4.60;;;;;;;14.05;95.50;101420.47;5035707;28;20463;-84
2022/07/01 03:35:36;;;;;;;11.10;5.05;;;;;;;14.05;94.06;101415.25;5049271;28;20055;-84
2022/07/01 03:38:03;;;;;;;8.93;5.32;;;;;;;13.99;94.34;101406.31;5049234;28;20021;-82
2022/07/01 03:40:30;;;;;;;10.95;5.28;;;;;;;13.94;93.98;101397.34;5049669;28;20048;-84
2022/07/01 03:42:56;;;;;;;10.07;5.15;;;;;;;13.94;94.83;101406.00;5059564;28;20032;-83
2022/07/01 03:45:21;;;;;;;11.45;5.15;;;;;;;13.87;95.38;101397.19;5046062;28;20039;-84
2022/07/01 03:47:51;;;;;;;8.70;5.13;;;;;;;13.88;95.83;101404.03;5047237;28;20036;-84
2022/07/01 03:50:17;;;;;;;8.27;3.72;;;;;;;13.91;95.52;101413.31;5054334;28;20071;-85
2022/07/01 03:52:43;;;;;;;6.45;3.47;;;;;;;13.95;95.11;101410.19;5036145;28;20123;-87
2022/07/01 03:55:09;;;;;;;8.52;3.53;;;;;;;13.98;94.65;101417.72;5044652;28;20092;-83
2022/07/01 03:57:35;;;;;;;16.73;5.28;;;;;;;14.02;94.64;101420.81;5034121;28;20044;-83
2022/07/01 04:00:01;;;;;;;12.55;4.68;;;;;;;14.01;94.68;101429.59;5048820;28;20029;-85
2022/07/01 04:02:26;;;;;;;9.88;5.03;;;;;;;13.97;95.14;101431.72;5053943;28;20051;-83
2022/07/01 04:04:52;;;;;;;9.60;3.83;;;;;;;14.01;95.39;101429.59;5042289;28;20037;-83
2022/07/01 04:07:18;;;;;;;13.40;5.30;;;;;;;13.97;95.40;101443.94;5036299;28;20044;-84
2022/07/01 04:09:43;;;;;;;15.88;5.40;;;;;;;13.98;95.67;101443.78;5040420;28;20041;-83
2022/07/01 04:12:12;;;;;;;14.15;5.22;;;;;;;13.95;95.16;101438.88;5053527;28;20765;-83
2022/07/01 04:14:38;;;;;;;13.98;4.85;;;;;;;13.92;95.73;101443.59;5039647;28;20147;-83
2022/07/01 04:17:03;;;;;;;17.15;4.32;;;;;;;13.88;96.15;101435.31;5065524;28;20036;-83
2022/07/01 04:19:29;;;;;;;7.68;3.80;;;;;;;13.88;96.64;101431.88;5049445;28;20089;-83
2022/07/01 04:24:39;;;;;;;14.07;3.53;;;;;;;13.89;97.03;101429.13;5060743;28;20042;-89
2022/07/01 04:27:04;;;;;;;11.15;4.53;;;;;;;13.85;96.06;101413.97;5052460;28;20028;-84
2022/07/01 04:29:30;;;;;;;8.23;4.05;;;;;;;13.88;96.21;101414.47;5051089;28;20067;-83
2022/07/01 04:31:57;;;;;;;5.70;3.70;;;;;;;13.91;96.09;101426.34;5050998;28;20146;-84
2022/07/01 04:34:22;;;;;;;7.40;3.75;;;;;;;13.94;96.03;101442.47;5048160;28;20420;-86
2022/07/01 04:36:48;;;;;;;8.55;5.10;;;;;;;13.94;96.01;101432.06;5059207;28;20029;-83
2022/07/01 04:39:13;;;;;;;8.35;3.97;;;;;;;13.94;96.16;101424.22;5073480;28;20028;-83
2022/07/01 04:44:23;;;;;;;6.05;3.13;;;;;;;13.94;96.72;101431.25;5066660;28;20032;-86
2022/07/01 04:46:48;;;;;;;4.90;3.70;;;;;;;13.92;95.90;101428.81;5054136;28;20113;-84
2022/07/01 04:49:14;;;;;;;5.47;3.72;;;;;;;13.93;96.30;101422.59;5052082;28;20039;-84
2022/07/01 04:51:40;;;;;;;3.63;2.60;;;;;;;13.96;96.44;101419.66;5056928;28;20040;-83
2022/07/01 04:54:06;;;;;;;6.95;3.50;;;;;;;13.99;96.29;101416.75;5057726;28;20078;-84
2022/07/01 04:56:33;;;;;;;8.43;3.58;;;;;;;14.14;95.41;101427.31;5052915;28;20501;-85
2022/07/01 04:58:59;;;;;;;10.52;4.20;;;;;;;14.03;95.72;101438.06;5051648;28;20232;-82
2022/07/01 05:01:24;;;;;;;7.15;3.35;;;;;;;13.99;95.57;101418.53;5068077;28;20032;-83
2022/07/01 05:03:50;;;;;;;12.77;3.75;;;;;;;14.02;95.45;101416.41;5067037;28;20062;-83
2022/07/01 05:06:16;;;;;;;7.93;4.05;;;;;;;14.02;95.72;101415.59;5052436;28;20028;-85
2022/07/01 05:08:41;;;;;;;8.98;3.95;;;;;;;13.98;95.74;101407.28;5048891;28;20269;-82
2022/07/01 05:11:07;;;;;;;10.32;3.50;;;;;;;13.94;96.17;101406.00;5059256;28;20027;-82
2022/07/01 05:13:33;;;;;;;7.72;3.50;;;;;;;13.98;96.08;101402.06;5048881;28;20064;-83
2022/07/01 05:15:59;;;;;;;9.30;4.38;;;;;;;14.02;95.80;101405.16;5067430;28;20044;-84
2022/07/01 05:23:53;;;;;;;10.88;4.10;;;;;;;14.06;95.98;101408.25;5065432;28;20103;-82
2022/07/01 05:26:19;;;;;;;6.38;3.50;;;;;;;14.07;95.71;101402.88;5053828;28;20036;-85
2022/07/01 05:28:45;;;;;;;9.18;4.07;;;;;;;14.20;96.00;101407.59;5050375;28;20034;-83
2022/07/01 05:31:10;;;;;;;7.90;3.45;;;;;;;14.21;95.67;101404.81;5046999;28;20107;-83
2022/07/01 05:33:36;;;;;;;14.13;4.38;;;;;;;14.25;95.17;101409.72;5050180;28;20178;-85
2022/07/01 05:36:01;;;;;;;10.63;4.50;;;;;;;14.24;95.98;101408.06;5057214;28;20035;-83
2022/07/01 05:38:27;;;;;;;16.70;4.85;;;;;;;14.30;95.88;101417.88;5043646;28;20031;-86
2022/07/01 05:40:53;;;;;;;13.43;4.80;;;;;;;14.32;95.62;101421.94;5056171;28;20149;-82
2022/07/01 05:43:20;;;;;;;12.48;4.32;;;;;;;14.43;95.12;101419.94;5047018;28;20090;-83
2022/07/01 05:45:46;;;;;;;7.47;4.03;;;;;;;14.42;93.53;101421.75;5060053;28;20040;-82
2022/07/01 05:48:11;;;;;;;8.68;3.83;;;;;;;14.38;94.03;101434.28;5061292;28;20024;-85
2022/07/01 05:50:37;;;;;;;11.05;4.45;;;;;;;14.49;94.13;101435.75;5056956;28;20047;-82
2022/07/01 05:53:02;;;;;;;11.52;3.92;;;;;;;14.47;94.45;101424.66;5047097;28;20124;-83
2022/07/01 05:55:28;;;;;;;10.65;4.80;;;;;;;14.53;94.56;101418.78;5049750;28;20031;-84
2022/07/01 05:57:54;;;;;;;11.15;4.65;;;;;;;14.50;94.73;101429.53;5061876;28;20029;-85
2022/07/01 06:00:19;;;;;;;10.45;5.30;;;;;;;14.54;93.87;101420.44;5044831;28;20036;-82
2022/07/01 06:02:45;;;;;;;8.45;4.28;;;;;;;14.48;93.00;101431.50;5048106;28;20943;-82
2022/07/01 06:05:13;;;;;;;13.40;5.38;;;;;;;14.55;93.23;101432.47;5064489;28;20667;-85
2022/07/01 06:07:40;;;;;;;10.18;5.00;;;;;;;14.48;94.24;101441.94;5051008;28;20110;-83
2022/07/01 06:10:10;;;;;;;8.57;5.43;;;;;;;14.39;94.89;101448.16;5060226;28;20021;-83
2022/07/01 06:12:39;;;;;;;12.82;5.20;;;;;;;14.43;94.96;101440.81;5047337;28;20033;-84
2022/07/01 06:15:10;;;;;;;9.23;6.03;;;;;;;14.48;94.52;101441.13;5050507;28;20064;-85
2022/07/01 06:17:36;;;;;;;12.50;6.25;;;;;;;14.45;94.33;101444.91;5046555;28;20058;-83
2022/07/01 06:20:01;;;;;;;11.85;5.50;;;;;;;14.54;93.64;101450.91;5047143;28;20024;-84
2022/07/01 06:22:27;;;;;;;8.95;4.93;;;;;;;14.62;93.66;101437.03;5048798;28;20642;-85
2022/07/01 06:24:53;;;;;;;11.75;5.70;;;;;;;14.50;94.19;101449.59;5051383;28;20028;-79
2022/07/01 06:27:19;;;;;;;15.48;5.95;;;;;;;14.54;93.71;101450.91;5060416;28;20042;-84
2022/07/01 06:29:45;;;;;;;15.38;5.50;;;;;;;14.52;93.64;101458.91;5071390;28;20040;-84
2022/07/01 06:32:11;;;;;;;10.13;5.72;;;;;;;14.56;93.66;101459.38;5055904;28;20461;-84
2022/07/01 06:34:36;;;;;;;18.85;6.75;;;;;;;14.68;93.02;101460.69;5052918;28;20043;-82
2022/07/01 06:37:03;;;;;;;14.15;6.55;;;;;;;14.63;93.79;101477.84;5065535;28;20062;-83
2022/07/01 06:39:29;;;;;;;9.80;6.32;;;;;;;14.63;92.41;101470.00;5054349;28;20062;-83
2022/07/01 06:41:56;;;;;;;14.00;6.43;;;;;;;14.60;93.12;101465.94;5064519;28;20023;-83
2022/07/01 06:44:22;;;;;;;14.77;8.48;;;;;;;14.72;93.27;101459.38;5058907;28;20097;-81
2022/07/01 06:46:47;;;;;;;10.90;5.82;;;;;;;14.75;92.77;101474.72;5065532;28;20322;-83
2022/07/01 06:49:13;;;;;;;11.73;7.68;;;;;;;14.83;92.25;101479.09;5054553;28;20071;-83
2022/07/01 06:51:39;;;;;;;10.65;7.05;;;;;;;14.94;92.92;101470.09;5053122;28;20108;-86
2022/07/01 06:54:04;;;;;;;13.73;7.32;;;;;;;15.60;90.89;101454.94;5058993;28;20043;-83
2022/07/01 06:56:30;;;;;;;10.68;6.13;;;;;;;16.02;87.31;101450.25;5062526;28;20044;-86
2022/07/01 06:58:56;;;;;;;12.07;5.93;;;;;;;16.15;85.51;101460.91;5059420;28;20024;-81
2022/07/01 07:01:22;;;;;;;13.13;6.93;;;;;;;16.15;85.57;101471.38;5080653;28;20096;-86
2022/07/01 07:03:48;;;;;;;10.60;7.00;;;;;;;15.97;86.41;101469.06;5080916;28;20269;-83
2022/07/01 07:06:13;;;;;;;15.27;6.82;;;;;;;15.89;85.15;101474.38;5067139;28;20049;-83
2022/07/01 07:08:39;;;;;;;10.20;6.40;;;;;;;15.82;84.76;101484.69;5049571;28;20412;-85
2022/07/01 07:11:04;;;;;;;18.73;7.18;;;;;;;15.83;84.06;101496.00;5060728;28;20400;-82
2022/07/01 07:13:30;;;;;;;11.88;6.68;;;;;;;15.76;84.12;101499.31;5047032;28;20496;-83
2022/07/01 07:15:56;;;;;;;13.25;5.63;;;;;;;15.77;83.42;101482.59;5048764;28;20140;-81
2022/07/01 07:18:21;;;;;;;11.77;5.32;;;;;;;15.81;83.49;101490.94;5058852;28;20107;-80
2022/07/01 07:20:47;;;;;;;7.90;4.60;;;;;;;16.09;82.46;101499.06;5046720;28;20506;-83
2022/07/01 07:23:13;;;;;;;8.73;4.70;;;;;;;16.18;82.76;101496.38;5062956;28;20028;-84
2022/07/01 07:25:39;;;;;;;10.20;5.00;;;;;;;16.12;81.52;101496.09;5053272;28;20032;-82
2022/07/01 07:28:04;;;;;;;8.88;5.05;;;;;;;16.27;81.65;101497.94;5051978;28;20078;-83
2022/07/01 07:30:30;;;;;;;13.20;4.88;;;;;;;16.33;81.90;101499.84;5056471;28;20043;-83
2022/07/01 07:32:55;;;;;;;14.18;4.28;;;;;;;16.39;81.47;101496.53;5051314;28;20097;-81
2022/07/01 07:35:21;;;;;;;9.82;4.22;;;;;;;16.31;81.32;101499.19;5064679;28;20031;-85
2022/07/01 07:37:46;;;;;;;9.43;3.95;;;;;;;16.69;80.53;101504.44;5051950;28;20047;-84
2022/07/01 07:40:14;;;;;;;4.82;3.33;;;;;;;16.84;79.84;101496.59;5045949;28;20043;-84
2022/07/01 07:42:40;;;;;;;9.85;3.75;;;;;;;16.97;79.15;101495.97;5048947;28;20155;-84
2022/07/01 07:45:07;;;;;;;5.95;3.60;;;;;;;17.02;79.36;101499.66;5049216;28;20123;-82
2022/07/01 07:47:34;;;;;;;7.75;2.83;;;;;;;16.90;79.10;101499.31;5050090;28;20479;-85
2022/07/01 07:50:00;;;;;;;12.45;2.70;;;;;;;17.00;77.89;101506.09;5050010;28;20093;-83
2022/07/01 07:52:25;;;;;;;10.55;3.10;;;;;;;17.32;77.78;101503.06;5051054;28;20040;-85
2022/07/01 07:54:51;;;;;;;6.60;2.60;;;;;;;17.93;75.99;101501.91;5052897;28;20054;-83
2022/07/01 07:57:16;;;;;;;12.55;4.18;;;;;;;18.09;73.41;101509.56;5054863;28;20498;-82
2022/07/01 07:59:42;;;;;;;5.65;2.25;;;;;;;18.08;73.34;101505.31;5049719;28;20055;-82
2022/07/01 08:02:07;;;;;;;5.75;2.50;;;;;;;18.70;71.94;101505.56;5065464;28;20051;-85
2022/07/01 08:04:33;;;;;;;7.68;2.88;;;;;;;19.74;68.64;101502.00;5040373;28;20040;-85
2022/07/01 08:06:58;;;;;;;4.25;1.83;;;;;;;20.12;65.48;101501.44;5052341;28;20038;-80
2022/07/01 08:09:26;;;;;;;8.10;2.45;;;;;;;20.38;63.14;101505.88;5064875;28;20105;-83
2022/07/01 08:11:51;;;;;;;4.68;1.60;;;;;;;20.60;63.89;101518.84;5043536;28;20115;-81
2022/07/01 08:14:17;;;;;;;6.82;2.33;;;;;;;20.03;64.80;101521.88;5049301;28;20539;-83
2022/07/01 08:16:42;;;;;;;5.40;2.10;;;;;;;20.59;62.49;101527.75;5043863;28;20040;-83
2022/07/01 08:19:08;;;;;;;13.82;2.20;;;;;;;20.71;60.39;101530.59;5036481;28;20032;-84
2022/07/01 08:21:33;;;;;;;9.43;2.22;;;;;;;20.49;62.45;101520.25;5059967;28;20041;-83
2022/07/01 08:23:59;;;;;;;5.25;1.60;;;;;;;20.40;63.06;101519.66;5054328;28;20040;-81
2022/07/01 08:26:30;;;;;;;7.88;1.73;;;;;;;20.31;60.72;101520.88;5064792;28;20040;-86
2022/07/01 08:28:56;;;;;;;5.82;1.73;;;;;;;19.73;62.16;101521.41;5035573;28;20036;-80
2022/07/01 08:31:21;;;;;;;4.97;1.50;;;;;;;19.86;63.85;101525.09;5068763;28;20055;-85
2022/07/01 08:33:47;;;;;;;7.28;1.92;;;;;;;19.82;64.24;101522.84;5031301;28;20496;-85
2022/07/01 08:36:13;;;;;;;5.18;1.80;;;;;;;20.49;63.35;101529.97;5034783;28;20401;-86
2022/07/01 08:38:41;;;;;;;4.28;1.73;;;;;;;21.15;61.03;101531.69;5048387;28;20025;-87
2022/07/01 08:41:07;;;;;;;6.07;1.50;;;;;;;21.44;60.94;101534.81;5035060;28;20078;-85
2022/07/01 08:43:34;;;;;;;12.95;2.70;;;;;;;21.52;58.06;101522.22;5024727;28;20068;-86
2022/07/01 08:46:03;;;;;;;4.60;1.35;;;;;;;21.24;59.67;101525.16;5049471;28;20041;-85
2022/07/01 08:48:30;;;;;;;4.95;1.20;;;;;;;20.57;59.08;101527.94;5042068;28;20035;-84
2022/07/01 08:50:55;;;;;;;7.55;1.52;;;;;;;20.67;58.01;101532.81;5039438;28;20078;-84
2022/07/01 08:53:21;;;;;;;4.68;1.55;;;;;;;20.79;58.16;101531.19;5047162;28;20049;-85
2022/07/01 08:58:31;;;;;;;3.47;1.42;;;;;;;20.42;58.52;101541.31;5054207;28;20045;-86
2022/07/01 09:01:14;;;;;;;4.20;0.95;;;;;;;20.35;58.93;101535.25;5048228;28;20095;-86
2022/07/01 09:03:41;;;;;;;4.28;1.10;;;;;;;20.25;61.34;101542.75;5052819;28;20111;-84
2022/07/01 09:06:17;;;;;;;2.95;1.23;;;;;;;19.88;59.37;101544.94;5030845;28;20062;-82
2022/07/01 09:08:43;;;;;;;3.47;1.23;;;;;;;19.81;58.87;101552.00;5043708;28;20047;-89
2022/07/01 09:11:18;;;;;;;5.68;1.30;;;;;;;19.64;60.25;101572.56;5038541;28;20024;-84
2022/07/01 09:13:45;;;;;;;5.40;1.40;;;;;;;19.61;58.96;101565.88;5050074;28;20135;-85
2022/07/01 09:16:16;;;;;;;5.13;1.40;;;;;;;19.51;59.43;101575.13;5031369;28;20028;-84
2022/07/01 09:19:00;;;;;;;3.30;1.08;;;;;;;19.93;59.17;101570.63;5048052;28;20035;-86
2022/07/01 09:21:29;;;;;;;2.83;1.00;;;;;;;20.20;59.32;101566.25;5050621;28;20029;-82
2022/07/01 09:23:55;;;;;;;5.20;1.27;;;;;;;20.32;58.32;101563.81;5050469;28;20109;-85
2022/07/01 09:26:21;;;;;;;3.60;1.00;;;;;;;20.72;56.59;101566.44;5060461;28;20104;-84
2022/07/01 09:28:54;;;;;;;4.05;1.10;;;;;;;20.56;57.63;101562.38;5065121;28;20492;-88
2022/07/01 09:31:19;;;;;;;3.53;1.00;;;;;;;20.40;56.86;101567.06;5048983;28;20438;-84
2022/07/01 09:33:45;;;;;;;8.75;1.05;;;;;;;20.77;56.92;101570.09;5049026;28;20036;-85
2022/07/01 09:36:15;;;;;;;5.18;1.00;;;;;;;21.19;55.00;101560.06;5044655;28;20039;-87
2022/07/01 09:38:47;;;;;;;2.50;0.75;;;;;;;21.15;54.14;101564.16;5060773;28;20032;-85
2022/07/01 09:41:13;;;;;;;7.55;1.65;;;;;;;21.07;55.24;101567.00;5051586;28;20036;-88
2022/07/01 09:44:03;;;;;;;5.10;1.23;;;;;;;20.72;55.65;101566.44;5042088;28;20031;-85
2022/07/01 09:46:29;;;;;;;4.13;1.38;;;;;;;20.40;53.93;101558.34;5049518;28;20429;-86
2022/07/01 09:48:54;;;;;;;5.72;1.75;;;;;;;20.39;57.13;101569.91;5043469;28;20669;-85
2022/07/01 09:51:20;;;;;;;3.92;1.10;;;;;;;20.41;56.57;101567.88;5056767;28;20020;-85
2022/07/01 09:53:45;;;;;;;4.05;1.38;;;;;;;20.61;57.12;101562.63;5057450;28;20443;-86
2022/07/01 09:56:11;;;;;;;4.53;1.08;;;;;;;20.65;56.39;101563.03;5047511;28;20046;-82
2022/07/01 09:58:38;;;;;;;5.72;1.27;;;;;;;20.86;55.97;101562.78;5043567;28;20040;-85
2022/07/01 10:01:06;;;;;;;4.63;1.33;;;;;;;21.47;54.21;101558.97;5062402;28;20140;-85
2022/07/01 10:03:32;;;;;;;3.30;0.77;;;;;;;21.71;54.60;101561.91;5073757;22;20094;-76
2022/07/01 10:06:54;;;;;;;7.90;1.17;;;;;;;21.74;54.12;101562.28;5043913;28;20051;-76
2022/07/01 10:10:07;;;;;;;3.38;1.00;;;;;;;21.50;54.86;101568.28;5090902;28;20120;-76
2022/07/01 10:13:00;;;;;;;4.70;1.20;;;;;;;21.31;54.71;101567.34;5060507;28;20047;-76
2022/07/01 10:15:52;;;;;;;4.47;1.55;;;;;;;21.90;54.50;101565.44;5073558;28;20047;-75
2022/07/01 10:18:43;;;;;;;3.22;1.10;;;;;;;22.25;53.79;101565.84;5066239;28;20039;-76
2022/07/01 10:21:34;;;;;;;1.48;0.77;;;;;;;22.80;52.07;101564.34;5083413;28;20039;-76
2022/07/01 10:24:26;;;;;;;5.38;1.83;;;;;;;23.00;50.37;101558.81;5061091;28;20388;-75
2022/07/01 10:27:22;;;;;;;10.85;1.13;;;;;;;23.32;50.67;101548.94;5067410;28;20100;-78
2022/07/01 10:30:14;;;;;;;5.28;1.42;;;;;;;23.08;49.26;101558.56;5067757;28;20071;-76
2022/07/01 10:33:05;;;;;;;3.40;0.98;;;;;;;22.43;48.78;101558.97;5082642;28;20046;-76
2022/07/01 11:19:35;;;;;;;3.40;0.70;;;;;;;24.41;44.09;101538.16;5072761;28;20047;-77
2022/07/01 11:22:02;;;;;;;2.70;0.60;;;;;;;24.43;41.10;101537.91;5072176;28;20107;-75
2022/07/01 11:24:28;;;;;;;3.85;0.60;;;;;;;24.53;43.03;101535.53;5060099;28;20544;-77
2022/07/01 11:27:06;;;;;;;3.08;0.63;;;;;;;24.57;41.00;101536.69;5060077;28;20079;-76
2022/07/01 11:29:32;;;;;;;0.88;0.40;;;;;;;24.51;42.27;101544.75;5061301;28;20102;-77
2022/07/01 11:31:57;;;;;;;5.47;1.08;;;;;;;24.63;41.41;101540.25;5063568;28;20492;-76
2022/07/01 11:34:23;;;;;;;1.73;0.45;;;;;;;24.34;41.90;101542.78;5081241;28;20101;-77
2022/07/01 11:39:35;;;;;;;3.28;0.90;;;;;;;24.40;43.15;101533.09;5064842;28;20052;-77
2022/07/01 11:42:04;;;;;;;2.85;0.70;;;;;;;23.87;43.05;101542.72;5066918;28;20472;-77
2022/07/01 11:44:43;;;;;;;2.65;0.60;;;;;;;23.56;41.54;101547.16;5063014;28;20744;-76
2022/07/01 11:47:24;;;;;;;1.08;0.50;;;;;;;23.70;41.92;101540.66;5043560;28;20032;-77
2022/07/01 11:49:51;;;;;;;5.82;0.70;;;;;;;23.67;42.78;101545.59;5064112;28;20032;-79
2022/07/01 11:52:18;;;;;;;2.17;0.60;;;;;;;23.52;41.61;101544.16;5079128;28;20025;-76
2022/07/01 11:54:46;;;;;;;2.85;1.20;;;;;;;23.48;42.04;101539.56;5061137;28;20036;-77
2022/07/01 11:57:15;;;;;;;5.40;1.98;;;;;;;23.32;42.54;101538.34;5077063;28;20078;-77
2022/07/01 11:59:42;;;;;;;1.30;0.60;;;;;;;23.57;42.53;101532.13;5061797;28;20119;-76
2022/07/01 12:02:11;;;;;;;3.17;0.82;;;;;;;23.86;45.11;101538.44;5061303;28;20028;-78
2022/07/01 12:04:37;;;;;;;2.22;0.77;;;;;;;24.16;43.81;101529.63;5059507;28;20434;-76
2022/07/01 12:07:03;;;;;;;2.67;0.77;;;;;;;24.34;42.56;101526.06;5064782;28;20067;-76
2022/07/01 12:09:29;;;;;;;4.57;0.80;;;;;;;24.29;42.17;101545.28;5081435;28;20888;-76
2022/07/01 12:11:54;;;;;;;3.47;0.70;;;;;;;24.08;41.47;101546.66;5059706;28;20024;-75
2022/07/01 12:14:31;;;;;;;2.15;0.52;;;;;;;24.29;41.08;101538.16;5080362;28;20036;-75
2022/07/01 12:16:59;;;;;;;3.85;0.80;;;;;;;24.25;39.12;101537.00;5068767;28;20089;-77
2022/07/01 12:19:29;;;;;;;1.83;0.82;;;;;;;23.86;39.88;101536.59;5084540;28;20039;-76
2022/07/01 12:21:58;;;;;;;3.88;1.25;;;;;;;23.47;41.51;101541.41;5062448;28;20548;-77
2022/07/01 12:24:24;;;;;;;3.00;0.40;;;;;;;23.41;42.13;101544.13;5049110;28;20024;-78
2022/07/01 12:26:53;;;;;;;3.92;0.45;;;;;;;23.15;42.64;101556.66;5048473;28;20119;-77